sensor_id;sensor_type;location;lat;lon;timestamp;P1;durP1;ratioP1;P2;durP2;ratioP2
6626;SDS011;3349;49.830;8.748;2024-02-23T00:02:20;3.83;;;1.40;;
6626;SDS011;3349;49.830;8.748;2024-02-23T00:04:46;5.53;;;1.45;;
6626;SDS011;3349;49.830;8.748;2024-02-23T00:07:13;4.05;;;1.48;;
6626;SDS011;3349;49.830;8.748;2024-02-23T00:09:41;2.88;;;1.00;;
6626;SDS011;3349;49.830;8.748;2024-02-23T00:12:08;3.45;;;1.20;;
6626;SDS011;3349;49.830;8.748;2024-02-23T00:14:35;2.10;;;1.10;;
6626;SDS011;3349;49.830;8.748;2024-02-23T00:17:02;3.25;;;1.30;;
6626;SDS011;3349;49.830;8.748;2024-02-23T00:19:29;3.38;;;0.93;;
6626;SDS011;3349;49.830;8.748;2024-02-23T00:21:56;2.58;;;1.25;;
6626;SDS011;3349;49.830;8.748;2024-02-23T00:24:24;3.00;;;1.20;;
6626;SDS011;3349;49.830;8.748;2024-02-23T00:26:52;3.28;;;1.20;;
6626;SDS011;3349;49.830;8.748;2024-02-23T00:29:19;2.97;;;1.15;;
6626;SDS011;3349;49.830;8.748;2024-02-23T00:31:46;2.80;;;1.20;;
6626;SDS011;3349;49.830;8.748;2024-02-23T00:34:13;3.65;;;1.58;;
6626;SDS011;3349;49.830;8.748;2024-02-23T00:36:40;2.65;;;1.10;;
6626;SDS011;3349;49.830;8.748;2024-02-23T00:39:09;2.22;;;0.93;;
6626;SDS011;3349;49.830;8.748;2024-02-23T00:41:36;2.20;;;1.10;;
6626;SDS011;3349;49.830;8.748;2024-02-23T00:44:04;2.60;;;1.08;;
6626;SDS011;3349;49.830;8.748;2024-02-23T00:46:31;1.73;;;1.25;;
6626;SDS011;3349;49.830;8.748;2024-02-23T00:48:58;2.85;;;1.10;;
6626;SDS011;3349;49.830;8.748;2024-02-23T00:51:25;2.28;;;1.40;;
6626;SDS011;3349;49.830;8.748;2024-02-23T00:53:51;6.68;;;1.02;;
6626;SDS011;3349;49.830;8.748;2024-02-23T00:56:18;5.07;;;1.40;;
6626;SDS011;3349;49.830;8.748;2024-02-23T00:58:45;2.08;;;1.08;;
6626;SDS011;3349;49.830;8.748;2024-02-23T01:01:13;2.10;;;1.05;;
6626;SDS011;3349;49.830;8.748;2024-02-23T01:03:39;2.35;;;1.00;;
6626;SDS011;3349;49.830;8.748;2024-02-23T01:06:06;5.25;;;1.30;;
6626;SDS011;3349;49.830;8.748;2024-02-23T01:08:33;2.55;;;1.02;;
6626;SDS011;3349;49.830;8.748;2024-02-23T01:11:00;3.15;;;1.35;;
6626;SDS011;3349;49.830;8.748;2024-02-23T01:13:27;3.83;;;1.25;;
6626;SDS011;3349;49.830;8.748;2024-02-23T01:15:54;5.88;;;1.63;;
6626;SDS011;3349;49.830;8.748;2024-02-23T01:18:22;1.33;;;0.98;;
6626;SDS011;3349;49.830;8.748;2024-02-23T01:20:48;2.72;;;1.30;;
6626;SDS011;3349;49.830;8.748;2024-02-23T01:23:15;4.00;;;1.10;;
6626;SDS011;3349;49.830;8.748;2024-02-23T01:25:42;2.15;;;1.00;;
6626;SDS011;3349;49.830;8.748;2024-02-23T01:28:09;2.35;;;1.30;;
6626;SDS011;3349;49.830;8.748;2024-02-23T01:30:35;5.35;;;1.60;;
6626;SDS011;3349;49.830;8.748;2024-02-23T01:33:02;2.45;;;1.10;;
6626;SDS011;3349;49.830;8.748;2024-02-23T01:35:30;3.25;;;1.33;;
6626;SDS011;3349;49.830;8.748;2024-02-23T01:37:57;2.95;;;1.08;;
6626;SDS011;3349;49.830;8.748;2024-02-23T01:40:23;2.58;;;1.05;;
6626;SDS011;3349;49.830;8.748;2024-02-23T01:42:59;1.67;;;0.90;;
6626;SDS011;3349;49.830;8.748;2024-02-23T01:45:27;6.57;;;1.05;;
6626;SDS011;3349;49.830;8.748;2024-02-23T01:47:53;6.63;;;1.38;;
6626;SDS011;3349;49.830;8.748;2024-02-23T01:50:20;4.60;;;1.40;;
6626;SDS011;3349;49.830;8.748;2024-02-23T01:52:48;2.25;;;0.90;;
6626;SDS011;3349;49.830;8.748;2024-02-23T01:55:16;6.15;;;1.45;;
6626;SDS011;3349;49.830;8.748;2024-02-23T01:57:44;2.05;;;0.95;;
6626;SDS011;3349;49.830;8.748;2024-02-23T02:00:12;3.53;;;0.82;;
6626;SDS011;3349;49.830;8.748;2024-02-23T02:02:42;3.92;;;0.90;;
6626;SDS011;3349;49.830;8.748;2024-02-23T02:05:09;1.90;;;1.10;;
6626;SDS011;3349;49.830;8.748;2024-02-23T02:07:36;2.67;;;1.02;;
6626;SDS011;3349;49.830;8.748;2024-02-23T02:10:05;1.65;;;0.90;;
6626;SDS011;3349;49.830;8.748;2024-02-23T02:12:34;3.80;;;1.08;;
6626;SDS011;3349;49.830;8.748;2024-02-23T02:15:01;4.43;;;1.27;;
6626;SDS011;3349;49.830;8.748;2024-02-23T02:17:29;1.63;;;0.93;;
6626;SDS011;3349;49.830;8.748;2024-02-23T02:19:56;1.80;;;0.88;;
6626;SDS011;3349;49.830;8.748;2024-02-23T02:22:25;2.38;;;0.90;;
6626;SDS011;3349;49.830;8.748;2024-02-23T02:24:51;1.77;;;1.02;;
6626;SDS011;3349;49.830;8.748;2024-02-23T02:27:19;6.07;;;1.10;;
6626;SDS011;3349;49.830;8.748;2024-02-23T02:29:46;0.95;;;0.70;;
6626;SDS011;3349;49.830;8.748;2024-02-23T02:32:15;1.90;;;0.80;;
6626;SDS011;3349;49.830;8.748;2024-02-23T02:34:42;2.92;;;1.00;;
6626;SDS011;3349;49.830;8.748;2024-02-23T02:37:09;1.00;;;0.80;;
6626;SDS011;3349;49.830;8.748;2024-02-23T02:39:35;6.55;;;1.30;;
6626;SDS011;3349;49.830;8.748;2024-02-23T02:42:02;2.13;;;1.00;;
6626;SDS011;3349;49.830;8.748;2024-02-23T02:44:30;1.30;;;0.80;;
6626;SDS011;3349;49.830;8.748;2024-02-23T02:46:57;1.77;;;0.90;;
6626;SDS011;3349;49.830;8.748;2024-02-23T02:49:24;1.73;;;1.00;;
6626;SDS011;3349;49.830;8.748;2024-02-23T02:51:50;1.80;;;0.80;;
6626;SDS011;3349;49.830;8.748;2024-02-23T02:54:17;1.38;;;0.88;;
6626;SDS011;3349;49.830;8.748;2024-02-23T02:56:44;2.20;;;0.85;;
6626;SDS011;3349;49.830;8.748;2024-02-23T02:59:11;3.05;;;0.93;;
6626;SDS011;3349;49.830;8.748;2024-02-23T03:01:40;1.92;;;0.93;;
6626;SDS011;3349;49.830;8.748;2024-02-23T03:04:07;3.42;;;0.80;;
6626;SDS011;3349;49.830;8.748;2024-02-23T03:06:34;3.63;;;0.82;;
6626;SDS011;3349;49.830;8.748;2024-02-23T03:09:01;3.40;;;1.00;;
6626;SDS011;3349;49.830;8.748;2024-02-23T03:11:27;2.55;;;0.82;;
6626;SDS011;3349;49.830;8.748;2024-02-23T03:13:54;1.73;;;0.77;;
6626;SDS011;3349;49.830;8.748;2024-02-23T03:16:21;2.53;;;0.90;;
6626;SDS011;3349;49.830;8.748;2024-02-23T03:18:52;3.83;;;1.27;;
6626;SDS011;3349;49.830;8.748;2024-02-23T03:21:20;2.53;;;1.40;;
6626;SDS011;3349;49.830;8.748;2024-02-23T03:23:46;5.93;;;1.13;;
6626;SDS011;3349;49.830;8.748;2024-02-23T03:26:13;3.10;;;1.17;;
6626;SDS011;3349;49.830;8.748;2024-02-23T03:28:42;2.67;;;1.30;;
6626;SDS011;3349;49.830;8.748;2024-02-23T03:31:08;4.85;;;1.08;;
6626;SDS011;3349;49.830;8.748;2024-02-23T03:33:35;3.20;;;1.13;;
6626;SDS011;3349;49.830;8.748;2024-02-23T03:36:03;2.80;;;1.00;;
6626;SDS011;3349;49.830;8.748;2024-02-23T03:38:30;4.22;;;1.35;;
6626;SDS011;3349;49.830;8.748;2024-02-23T03:40:58;6.65;;;1.35;;
6626;SDS011;3349;49.830;8.748;2024-02-23T03:43:25;2.87;;;1.37;;
6626;SDS011;3349;49.830;8.748;2024-02-23T03:45:52;3.20;;;1.05;;
6626;SDS011;3349;49.830;8.748;2024-02-23T03:48:19;4.57;;;1.20;;
6626;SDS011;3349;49.830;8.748;2024-02-23T03:50:45;2.70;;;1.10;;
6626;SDS011;3349;49.830;8.748;2024-02-23T03:53:13;2.50;;;1.10;;
6626;SDS011;3349;49.830;8.748;2024-02-23T03:55:40;3.40;;;1.08;;
6626;SDS011;3349;49.830;8.748;2024-02-23T03:58:07;3.42;;;1.33;;
6626;SDS011;3349;49.830;8.748;2024-02-23T04:00:33;2.05;;;1.00;;
6626;SDS011;3349;49.830;8.748;2024-02-23T04:03:00;1.13;;;0.93;;
6626;SDS011;3349;49.830;8.748;2024-02-23T04:05:27;1.30;;;0.82;;
6626;SDS011;3349;49.830;8.748;2024-02-23T04:07:53;1.73;;;1.00;;
6626;SDS011;3349;49.830;8.748;2024-02-23T04:10:21;3.50;;;1.00;;
6626;SDS011;3349;49.830;8.748;2024-02-23T04:12:48;1.17;;;0.90;;
6626;SDS011;3349;49.830;8.748;2024-02-23T04:15:15;4.43;;;1.15;;
6626;SDS011;3349;49.830;8.748;2024-02-23T04:17:42;1.52;;;1.00;;
6626;SDS011;3349;49.830;8.748;2024-02-23T04:20:09;3.65;;;1.63;;
6626;SDS011;3349;49.830;8.748;2024-02-23T04:22:36;2.85;;;1.00;;
6626;SDS011;3349;49.830;8.748;2024-02-23T04:25:03;4.68;;;1.23;;
6626;SDS011;3349;49.830;8.748;2024-02-23T04:27:32;2.00;;;1.13;;
6626;SDS011;3349;49.830;8.748;2024-02-23T04:29:59;4.15;;;1.23;;
6626;SDS011;3349;49.830;8.748;2024-02-23T04:32:26;2.75;;;1.77;;
6626;SDS011;3349;49.830;8.748;2024-02-23T04:34:52;3.80;;;1.42;;
6626;SDS011;3349;49.830;8.748;2024-02-23T04:37:19;5.35;;;1.40;;
6626;SDS011;3349;49.830;8.748;2024-02-23T04:39:45;2.85;;;1.27;;
6626;SDS011;3349;49.830;8.748;2024-02-23T04:42:12;2.50;;;1.10;;
6626;SDS011;3349;49.830;8.748;2024-02-23T04:44:42;4.00;;;1.25;;
6626;SDS011;3349;49.830;8.748;2024-02-23T04:47:08;4.05;;;1.20;;
6626;SDS011;3349;49.830;8.748;2024-02-23T04:49:35;5.50;;;1.30;;
6626;SDS011;3349;49.830;8.748;2024-02-23T04:52:02;2.22;;;1.13;;
6626;SDS011;3349;49.830;8.748;2024-02-23T04:54:29;3.15;;;1.23;;
6626;SDS011;3349;49.830;8.748;2024-02-23T04:56:55;5.95;;;1.27;;
6626;SDS011;3349;49.830;8.748;2024-02-23T04:59:22;2.30;;;0.95;;
6626;SDS011;3349;49.830;8.748;2024-02-23T05:01:50;5.35;;;1.10;;
6626;SDS011;3349;49.830;8.748;2024-02-23T05:04:16;3.13;;;1.30;;
6626;SDS011;3349;49.830;8.748;2024-02-23T05:06:43;1.80;;;1.27;;
6626;SDS011;3349;49.830;8.748;2024-02-23T05:09:10;1.90;;;0.90;;
6626;SDS011;3349;49.830;8.748;2024-02-23T05:11:37;3.80;;;1.40;;
6626;SDS011;3349;49.830;8.748;2024-02-23T05:14:04;5.43;;;1.27;;
6626;SDS011;3349;49.830;8.748;2024-02-23T05:16:31;6.32;;;1.42;;
6626;SDS011;3349;49.830;8.748;2024-02-23T05:18:58;2.33;;;1.00;;
6626;SDS011;3349;49.830;8.748;2024-02-23T05:21:25;4.68;;;1.27;;
6626;SDS011;3349;49.830;8.748;2024-02-23T05:23:52;3.65;;;1.17;;
6626;SDS011;3349;49.830;8.748;2024-02-23T05:26:18;3.20;;;1.50;;
6626;SDS011;3349;49.830;8.748;2024-02-23T05:28:45;4.38;;;1.05;;
6626;SDS011;3349;49.830;8.748;2024-02-23T05:31:12;4.10;;;1.20;;
6626;SDS011;3349;49.830;8.748;2024-02-23T05:33:38;5.38;;;1.10;;
6626;SDS011;3349;49.830;8.748;2024-02-23T05:36:07;3.53;;;1.30;;
6626;SDS011;3349;49.830;8.748;2024-02-23T05:38:34;6.35;;;1.48;;
6626;SDS011;3349;49.830;8.748;2024-02-23T05:41:01;5.80;;;1.75;;
6626;SDS011;3349;49.830;8.748;2024-02-23T05:43:27;2.33;;;1.20;;
6626;SDS011;3349;49.830;8.748;2024-02-23T05:45:54;2.53;;;1.42;;
6626;SDS011;3349;49.830;8.748;2024-02-23T05:48:23;5.13;;;1.13;;
6626;SDS011;3349;49.830;8.748;2024-02-23T05:50:50;3.15;;;1.20;;
6626;SDS011;3349;49.830;8.748;2024-02-23T05:53:19;5.22;;;0.98;;
6626;SDS011;3349;49.830;8.748;2024-02-23T05:55:45;4.60;;;1.70;;
6626;SDS011;3349;49.830;8.748;2024-02-23T05:58:12;6.75;;;1.45;;
6626;SDS011;3349;49.830;8.748;2024-02-23T06:00:41;2.95;;;1.00;;
6626;SDS011;3349;49.830;8.748;2024-02-23T06:03:08;6.60;;;1.65;;
6626;SDS011;3349;49.830;8.748;2024-02-23T06:05:34;5.63;;;1.35;;
6626;SDS011;3349;49.830;8.748;2024-02-23T06:08:01;3.35;;;1.38;;
6626;SDS011;3349;49.830;8.748;2024-02-23T06:10:29;1.80;;;1.25;;
6626;SDS011;3349;49.830;8.748;2024-02-23T06:12:56;7.55;;;3.50;;
6626;SDS011;3349;49.830;8.748;2024-02-23T06:15:22;4.25;;;2.00;;
6626;SDS011;3349;49.830;8.748;2024-02-23T06:17:49;8.05;;;2.70;;
6626;SDS011;3349;49.830;8.748;2024-02-23T06:20:16;6.07;;;2.70;;
6626;SDS011;3349;49.830;8.748;2024-02-23T06:22:44;4.90;;;2.13;;
6626;SDS011;3349;49.830;8.748;2024-02-23T06:25:11;5.18;;;1.85;;
6626;SDS011;3349;49.830;8.748;2024-02-23T06:27:39;4.45;;;1.25;;
6626;SDS011;3349;49.830;8.748;2024-02-23T06:30:06;3.80;;;1.40;;
6626;SDS011;3349;49.830;8.748;2024-02-23T06:32:36;7.00;;;1.30;;
6626;SDS011;3349;49.830;8.748;2024-02-23T06:35:02;3.15;;;1.20;;
6626;SDS011;3349;49.830;8.748;2024-02-23T06:37:31;2.25;;;1.10;;
6626;SDS011;3349;49.830;8.748;2024-02-23T06:39:57;7.50;;;1.30;;
6626;SDS011;3349;49.830;8.748;2024-02-23T06:42:24;3.60;;;1.25;;
6626;SDS011;3349;49.830;8.748;2024-02-23T06:44:52;6.95;;;1.60;;
6626;SDS011;3349;49.830;8.748;2024-02-23T06:47:19;2.25;;;1.20;;
6626;SDS011;3349;49.830;8.748;2024-02-23T06:49:47;4.10;;;1.58;;
6626;SDS011;3349;49.830;8.748;2024-02-23T06:52:13;7.03;;;1.50;;
6626;SDS011;3349;49.830;8.748;2024-02-23T06:54:40;1.90;;;1.33;;
6626;SDS011;3349;49.830;8.748;2024-02-23T06:57:07;5.45;;;1.60;;
6626;SDS011;3349;49.830;8.748;2024-02-23T06:59:33;3.83;;;1.70;;
6626;SDS011;3349;49.830;8.748;2024-02-23T07:02:01;3.92;;;1.50;;
6626;SDS011;3349;49.830;8.748;2024-02-23T07:04:29;6.15;;;1.67;;
6626;SDS011;3349;49.830;8.748;2024-02-23T07:06:55;2.58;;;1.30;;
6626;SDS011;3349;49.830;8.748;2024-02-23T07:09:22;3.55;;;1.38;;
6626;SDS011;3349;49.830;8.748;2024-02-23T07:11:49;6.38;;;1.50;;
6626;SDS011;3349;49.830;8.748;2024-02-23T07:14:15;9.32;;;1.65;;
6626;SDS011;3349;49.830;8.748;2024-02-23T07:16:43;4.63;;;1.88;;
6626;SDS011;3349;49.830;8.748;2024-02-23T07:19:11;3.55;;;1.33;;
6626;SDS011;3349;49.830;8.748;2024-02-23T07:21:37;3.00;;;1.50;;
6626;SDS011;3349;49.830;8.748;2024-02-23T07:24:04;3.88;;;1.25;;
6626;SDS011;3349;49.830;8.748;2024-02-23T07:26:31;2.25;;;1.75;;
6626;SDS011;3349;49.830;8.748;2024-02-23T07:28:58;4.72;;;1.70;;
6626;SDS011;3349;49.830;8.748;2024-02-23T07:31:25;10.32;;;2.60;;
6626;SDS011;3349;49.830;8.748;2024-02-23T07:33:52;6.15;;;1.63;;
6626;SDS011;3349;49.830;8.748;2024-02-23T07:36:20;7.82;;;1.50;;
6626;SDS011;3349;49.830;8.748;2024-02-23T07:38:47;3.17;;;1.40;;
6626;SDS011;3349;49.830;8.748;2024-02-23T07:41:14;4.13;;;1.60;;
6626;SDS011;3349;49.830;8.748;2024-02-23T07:43:42;7.47;;;1.63;;
6626;SDS011;3349;49.830;8.748;2024-02-23T07:46:09;4.63;;;1.40;;
6626;SDS011;3349;49.830;8.748;2024-02-23T07:48:36;3.67;;;1.20;;
6626;SDS011;3349;49.830;8.748;2024-02-23T07:51:03;7.75;;;1.88;;
6626;SDS011;3349;49.830;8.748;2024-02-23T07:53:32;4.78;;;1.40;;
6626;SDS011;3349;49.830;8.748;2024-02-23T07:55:59;3.20;;;1.20;;
6626;SDS011;3349;49.830;8.748;2024-02-23T07:58:27;3.28;;;1.27;;
6626;SDS011;3349;49.830;8.748;2024-02-23T08:00:54;6.88;;;1.80;;
6626;SDS011;3349;49.830;8.748;2024-02-23T08:03:21;4.93;;;1.92;;
6626;SDS011;3349;49.830;8.748;2024-02-23T08:05:48;5.00;;;1.77;;
6626;SDS011;3349;49.830;8.748;2024-02-23T08:08:15;5.50;;;2.13;;
6626;SDS011;3349;49.830;8.748;2024-02-23T08:10:43;5.05;;;1.60;;
6626;SDS011;3349;49.830;8.748;2024-02-23T08:13:10;8.00;;;1.95;;
6626;SDS011;3349;49.830;8.748;2024-02-23T08:15:36;3.35;;;1.40;;
6626;SDS011;3349;49.830;8.748;2024-02-23T08:18:03;5.85;;;1.55;;
6626;SDS011;3349;49.830;8.748;2024-02-23T08:20:30;3.63;;;1.70;;
6626;SDS011;3349;49.830;8.748;2024-02-23T08:22:57;2.78;;;1.33;;
6626;SDS011;3349;49.830;8.748;2024-02-23T08:25:23;4.45;;;1.60;;
6626;SDS011;3349;49.830;8.748;2024-02-23T08:27:54;3.97;;;1.30;;
6626;SDS011;3349;49.830;8.748;2024-02-23T08:30:21;7.68;;;1.83;;
6626;SDS011;3349;49.830;8.748;2024-02-23T08:32:48;3.13;;;1.35;;
6626;SDS011;3349;49.830;8.748;2024-02-23T08:35:15;3.95;;;1.38;;
6626;SDS011;3349;49.830;8.748;2024-02-23T08:37:41;1.42;;;1.00;;
6626;SDS011;3349;49.830;8.748;2024-02-23T08:40:08;12.82;;;1.65;;
6626;SDS011;3349;49.830;8.748;2024-02-23T08:42:36;5.38;;;1.67;;
6626;SDS011;3349;49.830;8.748;2024-02-23T08:45:04;5.22;;;1.75;;
6626;SDS011;3349;49.830;8.748;2024-02-23T08:47:32;8.30;;;2.15;;
6626;SDS011;3349;49.830;8.748;2024-02-23T08:50:00;6.43;;;1.20;;
6626;SDS011;3349;49.830;8.748;2024-02-23T08:52:27;5.88;;;1.52;;
6626;SDS011;3349;49.830;8.748;2024-02-23T08:54:54;3.97;;;1.67;;
6626;SDS011;3349;49.830;8.748;2024-02-23T08:57:21;7.40;;;2.28;;
6626;SDS011;3349;49.830;8.748;2024-02-23T08:59:48;5.38;;;1.60;;
6626;SDS011;3349;49.830;8.748;2024-02-23T09:02:16;6.65;;;2.80;;
6626;SDS011;3349;49.830;8.748;2024-02-23T09:04:43;5.65;;;1.60;;
6626;SDS011;3349;49.830;8.748;2024-02-23T09:07:10;5.80;;;1.50;;
6626;SDS011;3349;49.830;8.748;2024-02-23T09:09:37;6.15;;;1.98;;
6626;SDS011;3349;49.830;8.748;2024-02-23T09:12:04;3.85;;;1.60;;
6626;SDS011;3349;49.830;8.748;2024-02-23T09:14:35;5.05;;;1.95;;
6626;SDS011;3349;49.830;8.748;2024-02-23T09:17:02;4.07;;;1.50;;
6626;SDS011;3349;49.830;8.748;2024-02-23T09:19:32;7.35;;;1.30;;
6626;SDS011;3349;49.830;8.748;2024-02-23T09:21:59;9.80;;;1.95;;
6626;SDS011;3349;49.830;8.748;2024-02-23T09:24:26;7.10;;;1.58;;
6626;SDS011;3349;49.830;8.748;2024-02-23T09:26:53;6.10;;;1.20;;
6626;SDS011;3349;49.830;8.748;2024-02-23T09:29:20;8.57;;;2.08;;
6626;SDS011;3349;49.830;8.748;2024-02-23T09:31:47;5.78;;;1.40;;
6626;SDS011;3349;49.830;8.748;2024-02-23T09:34:14;5.35;;;1.80;;
6626;SDS011;3349;49.830;8.748;2024-02-23T09:36:42;3.90;;;1.25;;
6626;SDS011;3349;49.830;8.748;2024-02-23T09:39:08;5.05;;;1.52;;
6626;SDS011;3349;49.830;8.748;2024-02-23T09:41:35;6.68;;;1.98;;
6626;SDS011;3349;49.830;8.748;2024-02-23T09:44:05;7.72;;;1.75;;
6626;SDS011;3349;49.830;8.748;2024-02-23T09:46:34;3.65;;;1.52;;
6626;SDS011;3349;49.830;8.748;2024-02-23T09:49:03;7.55;;;1.70;;
6626;SDS011;3349;49.830;8.748;2024-02-23T09:51:32;8.27;;;1.50;;
6626;SDS011;3349;49.830;8.748;2024-02-23T09:54:02;4.38;;;1.40;;
6626;SDS011;3349;49.830;8.748;2024-02-23T09:56:29;5.97;;;1.90;;
6626;SDS011;3349;49.830;8.748;2024-02-23T09:58:57;6.45;;;1.55;;
6626;SDS011;3349;49.830;8.748;2024-02-23T10:01:27;5.13;;;1.60;;
6626;SDS011;3349;49.830;8.748;2024-02-23T10:03:56;7.85;;;2.03;;
6626;SDS011;3349;49.830;8.748;2024-02-23T10:06:23;4.50;;;1.52;;
6626;SDS011;3349;49.830;8.748;2024-02-23T10:08:50;9.30;;;2.10;;
6626;SDS011;3349;49.830;8.748;2024-02-23T10:11:19;4.53;;;1.95;;
6626;SDS011;3349;49.830;8.748;2024-02-23T10:13:47;6.75;;;1.83;;
6626;SDS011;3349;49.830;8.748;2024-02-23T10:16:14;6.38;;;1.67;;
6626;SDS011;3349;49.830;8.748;2024-02-23T10:18:41;8.35;;;1.60;;
6626;SDS011;3349;49.830;8.748;2024-02-23T10:21:08;5.75;;;1.40;;
6626;SDS011;3349;49.830;8.748;2024-02-23T10:23:35;4.93;;;1.33;;
6626;SDS011;3349;49.830;8.748;2024-02-23T10:26:02;3.70;;;1.73;;
6626;SDS011;3349;49.830;8.748;2024-02-23T10:28:32;9.05;;;1.90;;
6626;SDS011;3349;49.830;8.748;2024-02-23T10:30:59;7.57;;;1.98;;
6626;SDS011;3349;49.830;8.748;2024-02-23T10:33:27;4.90;;;1.60;;
6626;SDS011;3349;49.830;8.748;2024-02-23T10:35:55;5.68;;;1.25;;
6626;SDS011;3349;49.830;8.748;2024-02-23T10:38:23;3.45;;;1.58;;
6626;SDS011;3349;49.830;8.748;2024-02-23T10:40:51;13.07;;;1.70;;
6626;SDS011;3349;49.830;8.748;2024-02-23T10:43:23;3.08;;;1.40;;
6626;SDS011;3349;49.830;8.748;2024-02-23T10:45:57;4.95;;;1.40;;
6626;SDS011;3349;49.830;8.748;2024-02-23T10:48:27;4.90;;;1.80;;
6626;SDS011;3349;49.830;8.748;2024-02-23T10:50:55;4.07;;;1.70;;
6626;SDS011;3349;49.830;8.748;2024-02-23T10:53:23;4.65;;;1.50;;
6626;SDS011;3349;49.830;8.748;2024-02-23T10:55:52;5.60;;;2.05;;
6626;SDS011;3349;49.830;8.748;2024-02-23T10:58:23;4.57;;;2.00;;
6626;SDS011;3349;49.830;8.748;2024-02-23T11:00:50;5.65;;;1.90;;
6626;SDS011;3349;49.830;8.748;2024-02-23T11:03:20;7.28;;;1.90;;
6626;SDS011;3349;49.830;8.748;2024-02-23T11:05:47;5.43;;;2.03;;
6626;SDS011;3349;49.830;8.748;2024-02-23T11:08:16;7.13;;;2.92;;
6626;SDS011;3349;49.830;8.748;2024-02-23T11:10:48;4.45;;;1.90;;
6626;SDS011;3349;49.830;8.748;2024-02-23T11:13:16;7.95;;;2.00;;
6626;SDS011;3349;49.830;8.748;2024-02-23T11:15:42;5.35;;;1.60;;
6626;SDS011;3349;49.830;8.748;2024-02-23T11:18:23;7.65;;;1.45;;
6626;SDS011;3349;49.830;8.748;2024-02-23T11:20:53;4.95;;;1.65;;
6626;SDS011;3349;49.830;8.748;2024-02-23T11:23:21;4.47;;;1.58;;
6626;SDS011;3349;49.830;8.748;2024-02-23T11:25:58;4.25;;;1.52;;
6626;SDS011;3349;49.830;8.748;2024-02-23T11:28:26;5.35;;;1.50;;
6626;SDS011;3349;49.830;8.748;2024-02-23T11:30:53;4.25;;;1.48;;
6626;SDS011;3349;49.830;8.748;2024-02-23T11:33:26;5.90;;;1.52;;
6626;SDS011;3349;49.830;8.748;2024-02-23T11:35:53;2.80;;;1.83;;
6626;SDS011;3349;49.830;8.748;2024-02-23T11:38:31;7.65;;;2.20;;
6626;SDS011;3349;49.830;8.748;2024-02-23T11:40:59;7.22;;;2.22;;
6626;SDS011;3349;49.830;8.748;2024-02-23T11:43:26;4.43;;;1.85;;
6626;SDS011;3349;49.830;8.748;2024-02-23T11:45:53;7.13;;;2.47;;
6626;SDS011;3349;49.830;8.748;2024-02-23T11:48:19;6.72;;;2.10;;
6626;SDS011;3349;49.830;8.748;2024-02-23T11:50:48;4.40;;;1.88;;
6626;SDS011;3349;49.830;8.748;2024-02-23T11:53:16;5.90;;;2.05;;
6626;SDS011;3349;49.830;8.748;2024-02-23T11:55:44;3.80;;;1.55;;
6626;SDS011;3349;49.830;8.748;2024-02-23T11:58:11;5.78;;;1.65;;
6626;SDS011;3349;49.830;8.748;2024-02-23T12:00:37;4.50;;;1.95;;
6626;SDS011;3349;49.830;8.748;2024-02-23T12:03:05;4.38;;;1.42;;
6626;SDS011;3349;49.830;8.748;2024-02-23T12:05:32;4.72;;;1.85;;
6626;SDS011;3349;49.830;8.748;2024-02-23T12:08:00;7.05;;;1.80;;
6626;SDS011;3349;49.830;8.748;2024-02-23T12:10:28;5.65;;;2.25;;
6626;SDS011;3349;49.830;8.748;2024-02-23T12:12:55;7.50;;;2.40;;
6626;SDS011;3349;49.830;8.748;2024-02-23T12:15:21;6.28;;;1.80;;
6626;SDS011;3349;49.830;8.748;2024-02-23T12:17:48;5.18;;;2.30;;
6626;SDS011;3349;49.830;8.748;2024-02-23T12:20:15;5.97;;;1.77;;
6626;SDS011;3349;49.830;8.748;2024-02-23T12:22:42;3.08;;;1.58;;
6626;SDS011;3349;49.830;8.748;2024-02-23T12:25:10;2.78;;;1.85;;
6626;SDS011;3349;49.830;8.748;2024-02-23T12:27:38;8.60;;;2.20;;
6626;SDS011;3349;49.830;8.748;2024-02-23T12:30:05;3.88;;;1.90;;
6626;SDS011;3349;49.830;8.748;2024-02-23T12:32:39;3.28;;;1.80;;
6626;SDS011;3349;49.830;8.748;2024-02-23T12:35:06;3.72;;;1.58;;
6626;SDS011;3349;49.830;8.748;2024-02-23T12:37:34;4.20;;;1.83;;
6626;SDS011;3349;49.830;8.748;2024-02-23T12:40:02;5.68;;;1.70;;
6626;SDS011;3349;49.830;8.748;2024-02-23T12:42:31;4.32;;;1.65;;
6626;SDS011;3349;49.830;8.748;2024-02-23T12:44:58;5.60;;;2.10;;
6626;SDS011;3349;49.830;8.748;2024-02-23T12:47:24;5.65;;;1.95;;
6626;SDS011;3349;49.830;8.748;2024-02-23T12:49:51;2.38;;;1.50;;
6626;SDS011;3349;49.830;8.748;2024-02-23T12:52:17;6.80;;;2.10;;
6626;SDS011;3349;49.830;8.748;2024-02-23T12:54:44;5.38;;;2.03;;
6626;SDS011;3349;49.830;8.748;2024-02-23T12:57:11;3.92;;;1.83;;
6626;SDS011;3349;49.830;8.748;2024-02-23T12:59:39;3.22;;;1.73;;
6626;SDS011;3349;49.830;8.748;2024-02-23T13:02:06;7.75;;;2.42;;
6626;SDS011;3349;49.830;8.748;2024-02-23T13:04:35;5.28;;;1.52;;
6626;SDS011;3349;49.830;8.748;2024-02-23T13:07:02;4.72;;;1.92;;
6626;SDS011;3349;49.830;8.748;2024-02-23T13:09:29;5.35;;;1.95;;
6626;SDS011;3349;49.830;8.748;2024-02-23T13:11:55;4.82;;;2.35;;
6626;SDS011;3349;49.830;8.748;2024-02-23T13:14:22;4.68;;;2.13;;
6626;SDS011;3349;49.830;8.748;2024-02-23T13:16:50;4.82;;;2.08;;
6626;SDS011;3349;49.830;8.748;2024-02-23T13:19:17;5.47;;;1.75;;
6626;SDS011;3349;49.830;8.748;2024-02-23T13:21:43;2.40;;;1.83;;
6626;SDS011;3349;49.830;8.748;2024-02-23T13:24:10;3.90;;;1.73;;
6626;SDS011;3349;49.830;8.748;2024-02-23T13:26:37;4.18;;;1.40;;
6626;SDS011;3349;49.830;8.748;2024-02-23T13:29:04;2.88;;;1.63;;
6626;SDS011;3349;49.830;8.748;2024-02-23T13:31:31;4.25;;;1.60;;
6626;SDS011;3349;49.830;8.748;2024-02-23T13:34:00;4.93;;;2.30;;
6626;SDS011;3349;49.830;8.748;2024-02-23T13:36:28;5.57;;;2.03;;
6626;SDS011;3349;49.830;8.748;2024-02-23T13:38:54;5.15;;;1.60;;
6626;SDS011;3349;49.830;8.748;2024-02-23T13:41:21;5.40;;;1.60;;
6626;SDS011;3349;49.830;8.748;2024-02-23T13:43:48;4.90;;;1.70;;
6626;SDS011;3349;49.830;8.748;2024-02-23T13:46:15;4.65;;;1.58;;
6626;SDS011;3349;49.830;8.748;2024-02-23T13:48:41;3.30;;;1.88;;
6626;SDS011;3349;49.830;8.748;2024-02-23T13:51:09;4.35;;;1.95;;
6626;SDS011;3349;49.830;8.748;2024-02-23T13:53:36;4.13;;;1.50;;
6626;SDS011;3349;49.830;8.748;2024-02-23T13:56:03;6.47;;;2.38;;
6626;SDS011;3349;49.830;8.748;2024-02-23T13:58:30;5.05;;;2.03;;
6626;SDS011;3349;49.830;8.748;2024-02-23T14:00:57;7.10;;;2.10;;
6626;SDS011;3349;49.830;8.748;2024-02-23T14:03:24;3.72;;;2.17;;
6626;SDS011;3349;49.830;8.748;2024-02-23T14:05:50;5.07;;;2.00;;
6626;SDS011;3349;49.830;8.748;2024-02-23T14:08:18;5.60;;;2.00;;
6626;SDS011;3349;49.830;8.748;2024-02-23T14:10:45;6.45;;;2.20;;
6626;SDS011;3349;49.830;8.748;2024-02-23T14:13:12;5.40;;;1.63;;
6626;SDS011;3349;49.830;8.748;2024-02-23T14:15:39;5.75;;;2.03;;
6626;SDS011;3349;49.830;8.748;2024-02-23T14:18:05;4.22;;;1.75;;
6626;SDS011;3349;49.830;8.748;2024-02-23T14:20:32;7.95;;;2.05;;
6626;SDS011;3349;49.830;8.748;2024-02-23T14:22:58;4.20;;;1.60;;
6626;SDS011;3349;49.830;8.748;2024-02-23T14:25:26;3.58;;;1.83;;
6626;SDS011;3349;49.830;8.748;2024-02-23T14:27:53;6.15;;;2.05;;
6626;SDS011;3349;49.830;8.748;2024-02-23T14:30:20;6.10;;;2.10;;
6626;SDS011;3349;49.830;8.748;2024-02-23T14:32:47;7.63;;;2.35;;
6626;SDS011;3349;49.830;8.748;2024-02-23T14:35:14;5.03;;;1.52;;
6626;SDS011;3349;49.830;8.748;2024-02-23T14:37:41;7.20;;;2.47;;
6626;SDS011;3349;49.830;8.748;2024-02-23T14:40:08;6.25;;;2.15;;
6626;SDS011;3349;49.830;8.748;2024-02-23T14:42:37;5.30;;;2.08;;
6626;SDS011;3349;49.830;8.748;2024-02-23T14:45:06;6.75;;;2.05;;
6626;SDS011;3349;49.830;8.748;2024-02-23T14:47:34;2.38;;;1.50;;
6626;SDS011;3349;49.830;8.748;2024-02-23T14:50:01;6.40;;;1.77;;
6626;SDS011;3349;49.830;8.748;2024-02-23T14:52:28;5.30;;;1.77;;
6626;SDS011;3349;49.830;8.748;2024-02-23T14:54:55;5.25;;;1.92;;
6626;SDS011;3349;49.830;8.748;2024-02-23T14:57:22;4.25;;;1.75;;
6626;SDS011;3349;49.830;8.748;2024-02-23T14:59:50;4.07;;;1.83;;
6626;SDS011;3349;49.830;8.748;2024-02-23T15:02:18;4.93;;;1.70;;
6626;SDS011;3349;49.830;8.748;2024-02-23T15:04:47;3.40;;;1.42;;
6626;SDS011;3349;49.830;8.748;2024-02-23T15:07:14;4.03;;;1.80;;
6626;SDS011;3349;49.830;8.748;2024-02-23T15:09:41;3.90;;;1.77;;
6626;SDS011;3349;49.830;8.748;2024-02-23T15:12:08;3.28;;;1.63;;
6626;SDS011;3349;49.830;8.748;2024-02-23T15:14:35;2.05;;;1.50;;
6626;SDS011;3349;49.830;8.748;2024-02-23T15:17:03;2.63;;;1.40;;